sensor_id;sensor_type;location;lat;lon;timestamp;P1;durP1;ratioP1;P2;durP2;ratioP2
65879;SDS011;52661;51.364;6.054;2024-02-21T00:01:15;15.23;;;2.30;;
65879;SDS011;52661;51.364;6.054;2024-02-21T00:03:41;12.07;;;2.65;;
65879;SDS011;52661;51.364;6.054;2024-02-21T00:06:07;10.57;;;2.95;;
65879;SDS011;52661;51.364;6.054;2024-02-21T00:08:32;9.20;;;2.47;;
65879;SDS011;52661;51.364;6.054;2024-02-21T00:10:57;3.67;;;1.13;;
65879;SDS011;52661;51.364;6.054;2024-02-21T00:13:23;10.93;;;2.87;;
65879;SDS011;52661;51.364;6.054;2024-02-21T00:15:48;4.38;;;2.25;;
65879;SDS011;52661;51.364;6.054;2024-02-21T00:18:13;8.23;;;2.73;;
65879;SDS011;52661;51.364;6.054;2024-02-21T00:20:39;10.95;;;2.30;;
65879;SDS011;52661;51.364;6.054;2024-02-21T00:23:04;9.20;;;3.75;;
65879;SDS011;52661;51.364;6.054;2024-02-21T00:25:29;12.60;;;5.03;;
65879;SDS011;52661;51.364;6.054;2024-02-21T00:27:55;5.47;;;2.87;;
65879;SDS011;52661;51.364;6.054;2024-02-21T00:30:20;8.20;;;3.35;;
65879;SDS011;52661;51.364;6.054;2024-02-21T00:32:46;5.15;;;2.33;;
65879;SDS011;52661;51.364;6.054;2024-02-21T00:35:11;9.83;;;3.13;;
65879;SDS011;52661;51.364;6.054;2024-02-21T00:37:37;11.82;;;3.92;;
65879;SDS011;52661;51.364;6.054;2024-02-21T00:40:02;11.20;;;4.03;;
65879;SDS011;52661;51.364;6.054;2024-02-21T00:42:28;13.63;;;4.25;;
65879;SDS011;52661;51.364;6.054;2024-02-21T00:44:53;13.30;;;3.83;;
65879;SDS011;52661;51.364;6.054;2024-02-21T00:47:19;14.43;;;2.50;;
65879;SDS011;52661;51.364;6.054;2024-02-21T00:49:44;6.18;;;2.83;;
65879;SDS011;52661;51.364;6.054;2024-02-21T00:52:09;5.00;;;2.20;;
65879;SDS011;52661;51.364;6.054;2024-02-21T00:54:35;9.88;;;3.08;;
65879;SDS011;52661;51.364;6.054;2024-02-21T00:57:00;9.27;;;2.30;;
65879;SDS011;52661;51.364;6.054;2024-02-21T00:59:25;9.07;;;2.67;;
65879;SDS011;52661;51.364;6.054;2024-02-21T01:01:51;6.27;;;1.93;;
65879;SDS011;52661;51.364;6.054;2024-02-21T01:04:16;8.83;;;2.63;;
65879;SDS011;52661;51.364;6.054;2024-02-21T01:06:41;5.07;;;0.93;;
65879;SDS011;52661;51.364;6.054;2024-02-21T01:09:09;8.85;;;2.15;;
65879;SDS011;52661;51.364;6.054;2024-02-21T01:11:34;8.00;;;3.10;;
65879;SDS011;52661;51.364;6.054;2024-02-21T01:14:00;9.17;;;3.10;;
65879;SDS011;52661;51.364;6.054;2024-02-21T01:16:25;8.30;;;2.10;;
65879;SDS011;52661;51.364;6.054;2024-02-21T01:18:51;5.40;;;2.17;;
65879;SDS011;52661;51.364;6.054;2024-02-21T01:21:16;4.13;;;1.50;;
65879;SDS011;52661;51.364;6.054;2024-02-21T01:23:41;10.20;;;2.77;;
65879;SDS011;52661;51.364;6.054;2024-02-21T01:26:07;5.13;;;2.23;;
65879;SDS011;52661;51.364;6.054;2024-02-21T01:28:33;13.73;;;3.72;;
65879;SDS011;52661;51.364;6.054;2024-02-21T01:30:59;6.00;;;1.60;;
65879;SDS011;52661;51.364;6.054;2024-02-21T01:33:25;8.97;;;2.40;;
65879;SDS011;52661;51.364;6.054;2024-02-21T01:35:50;6.05;;;1.42;;
65879;SDS011;52661;51.364;6.054;2024-02-21T01:38:16;7.25;;;2.78;;
65879;SDS011;52661;51.364;6.054;2024-02-21T01:40:41;9.55;;;3.17;;
65879;SDS011;52661;51.364;6.054;2024-02-21T01:43:16;3.80;;;1.48;;
65879;SDS011;52661;51.364;6.054;2024-02-21T01:45:45;6.35;;;2.20;;
65879;SDS011;52661;51.364;6.054;2024-02-21T01:48:14;9.60;;;2.72;;
65879;SDS011;52661;51.364;6.054;2024-02-21T01:50:40;11.32;;;2.38;;
65879;SDS011;52661;51.364;6.054;2024-02-21T01:53:05;9.13;;;2.70;;
65879;SDS011;52661;51.364;6.054;2024-02-21T01:55:32;5.55;;;2.35;;
65879;SDS011;52661;51.364;6.054;2024-02-21T01:57:57;6.80;;;1.67;;
65879;SDS011;52661;51.364;6.054;2024-02-21T02:00:23;7.30;;;2.40;;
65879;SDS011;52661;51.364;6.054;2024-02-21T02:02:49;5.72;;;1.42;;
65879;SDS011;52661;51.364;6.054;2024-02-21T02:05:15;5.93;;;2.00;;
65879;SDS011;52661;51.364;6.054;2024-02-21T02:07:43;8.05;;;2.58;;
65879;SDS011;52661;51.364;6.054;2024-02-21T02:10:09;7.80;;;2.25;;
65879;SDS011;52661;51.364;6.054;2024-02-21T02:12:35;5.18;;;1.70;;
65879;SDS011;52661;51.364;6.054;2024-02-21T02:15:01;5.82;;;1.25;;
65879;SDS011;52661;51.364;6.054;2024-02-21T02:17:29;7.70;;;2.38;;
65879;SDS011;52661;51.364;6.054;2024-02-21T02:19:55;6.13;;;2.08;;
65879;SDS011;52661;51.364;6.054;2024-02-21T02:22:22;5.75;;;1.95;;
65879;SDS011;52661;51.364;6.054;2024-02-21T02:24:52;5.65;;;2.03;;
65879;SDS011;52661;51.364;6.054;2024-02-21T02:27:18;2.92;;;1.05;;
65879;SDS011;52661;51.364;6.054;2024-02-21T02:29:47;5.20;;;1.73;;
65879;SDS011;52661;51.364;6.054;2024-02-21T02:32:12;5.07;;;1.73;;
65879;SDS011;52661;51.364;6.054;2024-02-21T02:34:37;9.00;;;2.42;;
65879;SDS011;52661;51.364;6.054;2024-02-21T02:37:03;7.20;;;2.10;;
65879;SDS011;52661;51.364;6.054;2024-02-21T02:39:28;6.37;;;1.80;;
65879;SDS011;52661;51.364;6.054;2024-02-21T02:41:53;6.95;;;2.22;;
65879;SDS011;52661;51.364;6.054;2024-02-21T02:44:19;4.60;;;1.63;;
65879;SDS011;52661;51.364;6.054;2024-02-21T02:46:44;6.95;;;1.88;;
65879;SDS011;52661;51.364;6.054;2024-02-21T02:49:09;11.98;;;1.88;;
65879;SDS011;52661;51.364;6.054;2024-02-21T02:51:36;3.70;;;1.30;;
65879;SDS011;52661;51.364;6.054;2024-02-21T02:54:02;6.20;;;2.40;;
65879;SDS011;52661;51.364;6.054;2024-02-21T02:56:28;10.95;;;2.33;;
65879;SDS011;52661;51.364;6.054;2024-02-21T02:58:53;5.10;;;1.42;;
65879;SDS011;52661;51.364;6.054;2024-02-21T03:01:18;6.77;;;2.20;;
65879;SDS011;52661;51.364;6.054;2024-02-21T03:03:44;4.85;;;1.90;;
65879;SDS011;52661;51.364;6.054;2024-02-21T03:06:12;2.30;;;1.35;;
65879;SDS011;52661;51.364;6.054;2024-02-21T03:08:37;9.20;;;1.92;;
65879;SDS011;52661;51.364;6.054;2024-02-21T03:11:03;3.73;;;1.40;;
65879;SDS011;52661;51.364;6.054;2024-02-21T03:13:28;6.55;;;1.73;;
65879;SDS011;52661;51.364;6.054;2024-02-21T03:15:53;1.87;;;0.50;;
65879;SDS011;52661;51.364;6.054;2024-02-21T03:18:19;3.80;;;1.67;;
65879;SDS011;52661;51.364;6.054;2024-02-21T03:20:44;2.20;;;0.97;;
65879;SDS011;52661;51.364;6.054;2024-02-21T03:23:09;4.57;;;1.67;;
65879;SDS011;52661;51.364;6.054;2024-02-21T03:25:35;5.13;;;1.85;;
65879;SDS011;52661;51.364;6.054;2024-02-21T03:28:00;7.23;;;1.73;;
65879;SDS011;52661;51.364;6.054;2024-02-21T03:30:26;2.30;;;0.82;;
65879;SDS011;52661;51.364;6.054;2024-02-21T03:32:52;3.70;;;1.63;;
65879;SDS011;52661;51.364;6.054;2024-02-21T03:35:17;6.13;;;1.93;;
65879;SDS011;52661;51.364;6.054;2024-02-21T03:37:44;2.73;;;1.13;;
65879;SDS011;52661;51.364;6.054;2024-02-21T03:40:10;8.18;;;1.58;;
65879;SDS011;52661;51.364;6.054;2024-02-21T03:42:37;4.85;;;2.40;;
65879;SDS011;52661;51.364;6.054;2024-02-21T03:45:03;5.85;;;1.25;;
65879;SDS011;52661;51.364;6.054;2024-02-21T03:47:29;6.20;;;1.73;;
65879;SDS011;52661;51.364;6.054;2024-02-21T03:49:54;4.13;;;1.07;;
65879;SDS011;52661;51.364;6.054;2024-02-21T03:52:19;1.92;;;0.95;;
65879;SDS011;52661;51.364;6.054;2024-02-21T03:54:45;3.92;;;1.10;;
65879;SDS011;52661;51.364;6.054;2024-02-21T03:57:10;9.17;;;2.07;;
65879;SDS011;52661;51.364;6.054;2024-02-21T03:59:36;6.13;;;1.77;;
65879;SDS011;52661;51.364;6.054;2024-02-21T04:02:01;5.28;;;0.77;;
65879;SDS011;52661;51.364;6.054;2024-02-21T04:04:29;7.00;;;1.05;;
65879;SDS011;52661;51.364;6.054;2024-02-21T04:06:54;3.63;;;1.05;;
65879;SDS011;52661;51.364;6.054;2024-02-21T04:09:19;5.80;;;1.35;;
65879;SDS011;52661;51.364;6.054;2024-02-21T04:11:45;2.13;;;1.33;;
65879;SDS011;52661;51.364;6.054;2024-02-21T04:14:10;4.93;;;0.80;;
65879;SDS011;52661;51.364;6.054;2024-02-21T04:16:38;8.38;;;0.93;;
65879;SDS011;52661;51.364;6.054;2024-02-21T04:19:04;3.13;;;1.23;;
65879;SDS011;52661;51.364;6.054;2024-02-21T04:21:29;4.15;;;1.35;;
65879;SDS011;52661;51.364;6.054;2024-02-21T04:23:55;7.27;;;1.30;;
65879;SDS011;52661;51.364;6.054;2024-02-21T04:26:20;2.83;;;0.80;;
65879;SDS011;52661;51.364;6.054;2024-02-21T04:28:45;6.63;;;1.40;;
65879;SDS011;52661;51.364;6.054;2024-02-21T04:31:11;4.65;;;1.63;;
65879;SDS011;52661;51.364;6.054;2024-02-21T04:33:36;2.27;;;0.50;;
65879;SDS011;52661;51.364;6.054;2024-02-21T04:36:01;3.90;;;1.25;;
65879;SDS011;52661;51.364;6.054;2024-02-21T04:38:27;4.43;;;1.05;;
65879;SDS011;52661;51.364;6.054;2024-02-21T04:40:53;7.50;;;0.65;;
65879;SDS011;52661;51.364;6.054;2024-02-21T04:43:19;4.95;;;1.23;;
65879;SDS011;52661;51.364;6.054;2024-02-21T04:45:45;4.78;;;1.30;;
65879;SDS011;52661;51.364;6.054;2024-02-21T04:48:10;7.23;;;1.00;;
65879;SDS011;52661;51.364;6.054;2024-02-21T04:50:36;3.28;;;1.15;;
65879;SDS011;52661;51.364;6.054;2024-02-21T04:53:01;6.32;;;1.75;;
65879;SDS011;52661;51.364;6.054;2024-02-21T04:55:27;2.70;;;1.05;;
65879;SDS011;52661;51.364;6.054;2024-02-21T04:57:52;4.20;;;1.70;;
65879;SDS011;52661;51.364;6.054;2024-02-21T05:00:18;1.43;;;0.67;;
65879;SDS011;52661;51.364;6.054;2024-02-21T05:02:44;5.95;;;1.55;;
65879;SDS011;52661;51.364;6.054;2024-02-21T05:05:09;4.20;;;1.30;;
65879;SDS011;52661;51.364;6.054;2024-02-21T05:07:35;3.60;;;1.40;;
65879;SDS011;52661;51.364;6.054;2024-02-21T05:10:00;3.03;;;0.57;;
65879;SDS011;52661;51.364;6.054;2024-02-21T05:12:25;3.72;;;1.10;;
65879;SDS011;52661;51.364;6.054;2024-02-21T05:14:51;2.15;;;1.40;;
65879;SDS011;52661;51.364;6.054;2024-02-21T05:17:16;3.07;;;1.40;;
65879;SDS011;52661;51.364;6.054;2024-02-21T05:19:42;3.67;;;1.73;;
65879;SDS011;52661;51.364;6.054;2024-02-21T05:22:07;5.67;;;0.87;;
65879;SDS011;52661;51.364;6.054;2024-02-21T05:24:32;1.17;;;0.57;;
65879;SDS011;52661;51.364;6.054;2024-02-21T05:26:57;5.40;;;1.83;;
65879;SDS011;52661;51.364;6.054;2024-02-21T05:29:23;7.13;;;1.92;;
65879;SDS011;52661;51.364;6.054;2024-02-21T05:34:17;6.28;;;1.98;;
65879;SDS011;52661;51.364;6.054;2024-02-21T05:36:43;6.10;;;2.00;;
65879;SDS011;52661;51.364;6.054;2024-02-21T05:39:09;4.28;;;1.65;;
65879;SDS011;52661;51.364;6.054;2024-02-21T05:41:34;1.90;;;0.98;;
65879;SDS011;52661;51.364;6.054;2024-02-21T05:43:59;6.90;;;1.37;;
65879;SDS011;52661;51.364;6.054;2024-02-21T05:46:25;2.10;;;1.07;;
65879;SDS011;52661;51.364;6.054;2024-02-21T05:48:50;3.00;;;1.27;;
65879;SDS011;52661;51.364;6.054;2024-02-21T05:51:15;3.57;;;1.33;;
65879;SDS011;52661;51.364;6.054;2024-02-21T05:53:41;5.90;;;1.80;;
65879;SDS011;52661;51.364;6.054;2024-02-21T05:56:12;6.35;;;1.95;;
65879;SDS011;52661;51.364;6.054;2024-02-21T05:58:39;5.13;;;1.52;;
65879;SDS011;52661;51.364;6.054;2024-02-21T06:01:04;3.40;;;1.08;;
65879;SDS011;52661;51.364;6.054;2024-02-21T06:03:31;9.82;;;2.15;;
65879;SDS011;52661;51.364;6.054;2024-02-21T06:05:57;7.88;;;1.70;;
65879;SDS011;52661;51.364;6.054;2024-02-21T06:08:23;3.50;;;1.52;;
65879;SDS011;52661;51.364;6.054;2024-02-21T06:10:48;3.30;;;0.98;;
65879;SDS011;52661;51.364;6.054;2024-02-21T06:13:17;3.90;;;1.10;;
65879;SDS011;52661;51.364;6.054;2024-02-21T06:15:42;4.57;;;1.50;;
65879;SDS011;52661;51.364;6.054;2024-02-21T06:18:07;5.93;;;1.33;;
65879;SDS011;52661;51.364;6.054;2024-02-21T06:20:33;6.63;;;1.53;;
65879;SDS011;52661;51.364;6.054;2024-02-21T06:25:26;2.67;;;1.10;;
65879;SDS011;52661;51.364;6.054;2024-02-21T06:27:51;3.67;;;0.97;;
65879;SDS011;52661;51.364;6.054;2024-02-21T06:30:17;4.07;;;0.80;;
65879;SDS011;52661;51.364;6.054;2024-02-21T06:32:42;4.73;;;2.33;;
65879;SDS011;52661;51.364;6.054;2024-02-21T06:35:07;7.10;;;1.65;;
65879;SDS011;52661;51.364;6.054;2024-02-21T06:37:33;7.65;;;1.45;;
65879;SDS011;52661;51.364;6.054;2024-02-21T06:39:58;4.57;;;1.58;;
65879;SDS011;52661;51.364;6.054;2024-02-21T06:42:24;6.65;;;1.48;;
65879;SDS011;52661;51.364;6.054;2024-02-21T06:44:50;3.83;;;1.38;;
65879;SDS011;52661;51.364;6.054;2024-02-21T06:47:15;4.93;;;1.13;;
65879;SDS011;52661;51.364;6.054;2024-02-21T06:49:41;3.50;;;1.30;;
65879;SDS011;52661;51.364;6.054;2024-02-21T06:52:07;6.57;;;1.80;;
65879;SDS011;52661;51.364;6.054;2024-02-21T06:54:32;9.35;;;1.88;;
65879;SDS011;52661;51.364;6.054;2024-02-21T06:56:58;2.30;;;0.75;;
65879;SDS011;52661;51.364;6.054;2024-02-21T06:59:23;2.67;;;1.53;;
65879;SDS011;52661;51.364;6.054;2024-02-21T07:01:49;4.13;;;0.95;;
65879;SDS011;52661;51.364;6.054;2024-02-21T07:04:15;3.20;;;1.10;;
65879;SDS011;52661;51.364;6.054;2024-02-21T07:06:40;5.03;;;1.25;;
65879;SDS011;52661;51.364;6.054;2024-02-21T07:09:05;7.00;;;1.57;;
65879;SDS011;52661;51.364;6.054;2024-02-21T07:11:31;2.53;;;0.83;;
65879;SDS011;52661;51.364;6.054;2024-02-21T07:13:56;3.10;;;0.90;;
65879;SDS011;52661;51.364;6.054;2024-02-21T07:16:21;6.45;;;1.10;;
65879;SDS011;52661;51.364;6.054;2024-02-21T07:18:47;1.63;;;0.77;;
65879;SDS011;52661;51.364;6.054;2024-02-21T07:21:12;5.67;;;1.67;;
65879;SDS011;52661;51.364;6.054;2024-02-21T07:23:40;4.35;;;1.90;;
65879;SDS011;52661;51.364;6.054;2024-02-21T07:26:06;2.97;;;0.95;;
65879;SDS011;52661;51.364;6.054;2024-02-21T07:28:32;2.33;;;1.10;;
65879;SDS011;52661;51.364;6.054;2024-02-21T07:30:58;5.77;;;1.47;;
65879;SDS011;52661;51.364;6.054;2024-02-21T07:33:24;5.68;;;1.52;;
65879;SDS011;52661;51.364;6.054;2024-02-21T07:35:50;5.73;;;1.13;;
65879;SDS011;52661;51.364;6.054;2024-02-21T07:38:15;3.70;;;1.17;;
65879;SDS011;52661;51.364;6.054;2024-02-21T07:40:44;4.97;;;1.15;;
65879;SDS011;52661;51.364;6.054;2024-02-21T07:43:09;2.83;;;0.98;;
65879;SDS011;52661;51.364;6.054;2024-02-21T07:45:35;5.00;;;0.98;;
65879;SDS011;52661;51.364;6.054;2024-02-21T07:48:00;2.95;;;1.15;;
65879;SDS011;52661;51.364;6.054;2024-02-21T07:50:26;3.38;;;1.38;;
65879;SDS011;52661;51.364;6.054;2024-02-21T07:52:51;3.53;;;0.43;;
65879;SDS011;52661;51.364;6.054;2024-02-21T07:55:17;4.32;;;1.25;;
65879;SDS011;52661;51.364;6.054;2024-02-21T07:57:42;5.60;;;1.25;;
65879;SDS011;52661;51.364;6.054;2024-02-21T08:00:08;4.97;;;0.82;;
65879;SDS011;52661;51.364;6.054;2024-02-21T08:02:35;3.67;;;1.02;;
65879;SDS011;52661;51.364;6.054;2024-02-21T08:05:00;2.42;;;0.70;;
65879;SDS011;52661;51.364;6.054;2024-02-21T08:07:26;5.32;;;1.33;;
65879;SDS011;52661;51.364;6.054;2024-02-21T08:09:54;1.33;;;0.77;;
65879;SDS011;52661;51.364;6.054;2024-02-21T08:12:19;3.55;;;2.47;;
65879;SDS011;52661;51.364;6.054;2024-02-21T08:14:44;5.23;;;1.90;;
65879;SDS011;52661;51.364;6.054;2024-02-21T08:17:10;1.57;;;0.60;;
65879;SDS011;52661;51.364;6.054;2024-02-21T08:19:35;4.90;;;0.77;;
65879;SDS011;52661;51.364;6.054;2024-02-21T08:22:00;2.73;;;0.97;;
65879;SDS011;52661;51.364;6.054;2024-02-21T08:24:26;1.70;;;0.65;;
65879;SDS011;52661;51.364;6.054;2024-02-21T08:26:51;2.03;;;0.93;;
65879;SDS011;52661;51.364;6.054;2024-02-21T08:29:16;3.80;;;0.93;;
65879;SDS011;52661;51.364;6.054;2024-02-21T08:31:42;1.90;;;0.57;;
65879;SDS011;52661;51.364;6.054;2024-02-21T08:34:07;3.87;;;1.23;;
65879;SDS011;52661;51.364;6.054;2024-02-21T08:36:33;6.25;;;0.80;;
65879;SDS011;52661;51.364;6.054;2024-02-21T08:38:59;3.30;;;1.20;;
65879;SDS011;52661;51.364;6.054;2024-02-21T08:41:25;4.97;;;1.05;;
65879;SDS011;52661;51.364;6.054;2024-02-21T08:43:51;1.85;;;0.77;;
65879;SDS011;52661;51.364;6.054;2024-02-21T08:46:17;3.25;;;1.23;;
65879;SDS011;52661;51.364;6.054;2024-02-21T08:48:43;0.98;;;0.52;;
65879;SDS011;52661;51.364;6.054;2024-02-21T08:51:11;1.27;;;0.38;;
65879;SDS011;52661;51.364;6.054;2024-02-21T08:53:36;1.67;;;0.75;;
65879;SDS011;52661;51.364;6.054;2024-02-21T08:56:03;2.72;;;1.48;;
65879;SDS011;52661;51.364;6.054;2024-02-21T08:58:28;2.38;;;0.73;;
65879;SDS011;52661;51.364;6.054;2024-02-21T09:00:54;4.15;;;1.35;;
65879;SDS011;52661;51.364;6.054;2024-02-21T09:03:19;1.80;;;0.73;;
65879;SDS011;52661;51.364;6.054;2024-02-21T09:05:45;1.35;;;0.45;;
65879;SDS011;52661;51.364;6.054;2024-02-21T09:08:11;3.65;;;0.68;;
65879;SDS011;52661;51.364;6.054;2024-02-21T09:10:36;1.88;;;0.95;;
65879;SDS011;52661;51.364;6.054;2024-02-21T09:13:02;2.63;;;0.77;;
65879;SDS011;52661;51.364;6.054;2024-02-21T09:15:28;2.05;;;1.10;;
65879;SDS011;52661;51.364;6.054;2024-02-21T09:17:54;1.25;;;0.52;;
65879;SDS011;52661;51.364;6.054;2024-02-21T09:20:19;4.07;;;1.00;;
65879;SDS011;52661;51.364;6.054;2024-02-21T09:22:44;3.45;;;0.75;;
65879;SDS011;52661;51.364;6.054;2024-02-21T09:25:10;2.33;;;0.73;;
65879;SDS011;52661;51.364;6.054;2024-02-21T09:27:37;4.03;;;0.85;;
65879;SDS011;52661;51.364;6.054;2024-02-21T09:30:03;3.17;;;0.70;;
65879;SDS011;52661;51.364;6.054;2024-02-21T09:32:30;2.38;;;0.68;;
65879;SDS011;52661;51.364;6.054;2024-02-21T09:34:55;3.45;;;1.17;;
65879;SDS011;52661;51.364;6.054;2024-02-21T09:37:21;3.33;;;1.48;;
65879;SDS011;52661;51.364;6.054;2024-02-21T09:39:46;2.47;;;1.05;;
65879;SDS011;52661;51.364;6.054;2024-02-21T09:42:12;7.40;;;1.35;;
65879;SDS011;52661;51.364;6.054;2024-02-21T09:44:42;3.33;;;1.33;;
65879;SDS011;52661;51.364;6.054;2024-02-21T09:47:12;3.83;;;1.08;;
65879;SDS011;52661;51.364;6.054;2024-02-21T09:49:44;1.15;;;0.55;;
65879;SDS011;52661;51.364;6.054;2024-02-21T09:52:10;4.05;;;1.13;;
65879;SDS011;52661;51.364;6.054;2024-02-21T09:54:39;3.30;;;1.05;;
65879;SDS011;52661;51.364;6.054;2024-02-21T09:57:05;3.67;;;1.05;;
65879;SDS011;52661;51.364;6.054;2024-02-21T09:59:32;1.08;;;0.95;;
65879;SDS011;52661;51.364;6.054;2024-02-21T10:01:58;1.00;;;0.57;;
65879;SDS011;52661;51.364;6.054;2024-02-21T10:04:27;4.38;;;1.05;;
65879;SDS011;52661;51.364;6.054;2024-02-21T10:06:53;4.43;;;1.15;;
65879;SDS011;52661;51.364;6.054;2024-02-21T10:09:26;0.90;;;0.68;;
65879;SDS011;52661;51.364;6.054;2024-02-21T10:11:53;2.65;;;0.98;;
65879;SDS011;52661;51.364;6.054;2024-02-21T10:14:18;5.15;;;1.52;;
65879;SDS011;52661;51.364;6.054;2024-02-21T10:16:48;7.72;;;0.95;;
65879;SDS011;52661;51.364;6.054;2024-02-21T10:19:20;1.05;;;0.28;;
65879;SDS011;52661;51.364;6.054;2024-02-21T10:22:02;5.70;;;1.13;;
65879;SDS011;52661;51.364;6.054;2024-02-21T10:24:29;2.10;;;0.95;;
65879;SDS011;52661;51.364;6.054;2024-02-21T10:26:59;8.45;;;0.82;;
65879;SDS011;52661;51.364;6.054;2024-02-21T10:29:28;6.80;;;0.68;;
65879;SDS011;52661;51.364;6.054;2024-02-21T10:32:04;0.98;;;0.17;;
65879;SDS011;52661;51.364;6.054;2024-02-21T10:34:31;5.45;;;1.10;;
65879;SDS011;52661;51.364;6.054;2024-02-21T10:37:02;0.82;;;0.47;;
65879;SDS011;52661;51.364;6.054;2024-02-21T10:39:29;2.70;;;0.75;;
65879;SDS011;52661;51.364;6.054;2024-02-21T10:41:59;1.65;;;0.57;;
65879;SDS011;52661;51.364;6.054;2024-02-21T10:44:29;8.20;;;1.30;;
65879;SDS011;52661;51.364;6.054;2024-02-21T10:46:56;5.65;;;1.35;;
65879;SDS011;52661;51.364;6.054;2024-02-21T10:49:30;1.65;;;0.55;;
65879;SDS011;52661;51.364;6.054;2024-02-21T10:52:14;2.13;;;1.05;;
65879;SDS011;52661;51.364;6.054;2024-02-21T10:57:34;1.63;;;0.65;;
65879;SDS011;52661;51.364;6.054;2024-02-21T11:00:03;1.08;;;0.28;;
65879;SDS011;52661;51.364;6.054;2024-02-21T11:02:33;5.85;;;0.98;;
65879;SDS011;52661;51.364;6.054;2024-02-21T11:04:59;5.15;;;0.88;;
65879;SDS011;52661;51.364;6.054;2024-02-21T11:07:25;6.82;;;1.52;;
65879;SDS011;52661;51.364;6.054;2024-02-21T11:09:51;4.25;;;1.55;;
65879;SDS011;52661;51.364;6.054;2024-02-21T11:12:20;5.78;;;0.73;;
65879;SDS011;52661;51.364;6.054;2024-02-21T11:14:47;2.85;;;0.70;;
65879;SDS011;52661;51.364;6.054;2024-02-21T11:17:16;5.63;;;1.30;;
65879;SDS011;52661;51.364;6.054;2024-02-21T11:19:51;3.97;;;0.52;;
65879;SDS011;52661;51.364;6.054;2024-02-21T11:22:17;4.70;;;0.33;;
65879;SDS011;52661;51.364;6.054;2024-02-21T11:24:44;3.65;;;0.38;;
65879;SDS011;52661;51.364;6.054;2024-02-21T11:27:14;1.80;;;0.75;;
65879;SDS011;52661;51.364;6.054;2024-02-21T11:32:10;5.38;;;0.82;;
65879;SDS011;52661;51.364;6.054;2024-02-21T11:34:39;3.70;;;1.45;;
65879;SDS011;52661;51.364;6.054;2024-02-21T11:37:13;3.22;;;1.17;;
65879;SDS011;52661;51.364;6.054;2024-02-21T11:39:42;3.50;;;0.73;;
65879;SDS011;52661;51.364;6.054;2024-02-21T11:42:08;4.88;;;0.90;;
65879;SDS011;52661;51.364;6.054;2024-02-21T11:44:34;2.03;;;0.73;;
65879;SDS011;52661;51.364;6.054;2024-02-21T11:47:06;3.47;;;1.42;;
65879;SDS011;52661;51.364;6.054;2024-02-21T11:49:35;10.13;;;1.45;;
65879;SDS011;52661;51.364;6.054;2024-02-21T11:52:02;3.83;;;0.80;;
65879;SDS011;52661;51.364;6.054;2024-02-21T11:54:32;2.63;;;0.88;;
65879;SDS011;52661;51.364;6.054;2024-02-21T11:56:58;4.60;;;0.85;;
65879;SDS011;52661;51.364;6.054;2024-02-21T11:59:24;1.80;;;0.52;;
65879;SDS011;52661;51.364;6.054;2024-02-21T12:01:49;1.95;;;0.45;;
65879;SDS011;52661;51.364;6.054;2024-02-21T12:04:17;3.63;;;1.00;;
65879;SDS011;52661;51.364;6.054;2024-02-21T12:06:44;6.82;;;1.48;;
65879;SDS011;52661;51.364;6.054;2024-02-21T12:09:13;3.72;;;1.02;;
65879;SDS011;52661;51.364;6.054;2024-02-21T12:11:39;5.70;;;1.02;;
65879;SDS011;52661;51.364;6.054;2024-02-21T12:14:05;3.38;;;1.25;;
65879;SDS011;52661;51.364;6.054;2024-02-21T12:16:33;1.60;;;0.93;;
65879;SDS011;52661;51.364;6.054;2024-02-21T12:18:59;3.05;;;1.15;;
65879;SDS011;52661;51.364;6.054;2024-02-21T12:21:34;3.60;;;1.30;;
65879;SDS011;52661;51.364;6.054;2024-02-21T12:24:14;2.33;;;0.85;;
65879;SDS011;52661;51.364;6.054;2024-02-21T12:26:41;3.90;;;1.02;;
65879;SDS011;52661;51.364;6.054;2024-02-21T12:29:06;5.47;;;1.27;;
65879;SDS011;52661;51.364;6.054;2024-02-21T12:31:36;7.03;;;1.30;;
65879;SDS011;52661;51.364;6.054;2024-02-21T12:34:02;2.67;;;1.00;;
65879;SDS011;52661;51.364;6.054;2024-02-21T12:36:29;3.53;;;1.23;;
65879;SDS011;52661;51.364;6.054;2024-02-21T12:38:54;3.10;;;1.08;;
65879;SDS011;52661;51.364;6.054;2024-02-21T12:41:20;2.03;;;0.88;;
65879;SDS011;52661;51.364;6.054;2024-02-21T12:43:45;2.08;;;0.70;;
65879;SDS011;52661;51.364;6.054;2024-02-21T12:46:12;4.47;;;1.40;;
65879;SDS011;52661;51.364;6.054;2024-02-21T12:48:37;2.30;;;0.95;;
65879;SDS011;52661;51.364;6.054;2024-02-21T12:51:03;3.72;;;1.08;;
65879;SDS011;52661;51.364;6.054;2024-02-21T12:53:29;6.35;;;0.95;;
65879;SDS011;52661;51.364;6.054;2024-02-21T12:55:55;7.80;;;1.77;;
65879;SDS011;52661;51.364;6.054;2024-02-21T12:58:21;1.25;;;0.63;;
65879;SDS011;52661;51.364;6.054;2024-02-21T13:00:47;2.20;;;1.10;;
65879;SDS011;52661;51.364;6.054;2024-02-21T13:03:13;6.20;;;1.45;;
65879;SDS011;52661;51.364;6.054;2024-02-21T13:05:39;6.80;;;1.63;;
65879;SDS011;52661;51.364;6.054;2024-02-21T13:08:05;4.10;;;1.33;;
65879;SDS011;52661;51.364;6.054;2024-02-21T13:10:31;1.30;;;0.55;;
65879;SDS011;52661;51.364;6.054;2024-02-21T13:12:58;3.03;;;1.15;;
65879;SDS011;52661;51.364;6.054;2024-02-21T13:15:23;4.60;;;0.82;;
65879;SDS011;52661;51.364;6.054;2024-02-21T13:17:49;4.40;;;1.33;;
65879;SDS011;52661;51.364;6.054;2024-02-21T13:20:14;1.88;;;0.70;;
65879;SDS011;52661;51.364;6.054;2024-02-21T13:22:40;1.00;;;0.25;;
65879;SDS011;52661;51.364;6.054;2024-02-21T13:25:06;3.47;;;0.45;;
65879;SDS011;52661;51.364;6.054;2024-02-21T13:27:32;4.88;;;1.40;;
65879;SDS011;52661;51.364;6.054;2024-02-21T13:29:58;3.70;;;0.75;;
65879;SDS011;52661;51.364;6.054;2024-02-21T13:32:25;0.65;;;0.32;;
65879;SDS011;52661;51.364;6.054;2024-02-21T13:34:50;1.45;;;0.57;;
65879;SDS011;52661;51.364;6.054;2024-02-21T13:37:17;2.03;;;0.90;;
65879;SDS011;52661;51.364;6.054;2024-02-21T13:39:43;6.30;;;1.10;;
65879;SDS011;52661;51.364;6.054;2024-02-21T13:42:08;2.97;;;0.52;;
65879;SDS011;52661;51.364;6.054;2024-02-21T13:44:34;2.67;;;0.82;;
65879;SDS011;52661;51.364;6.054;2024-02-21T13:46:59;2.90;;;1.27;;
65879;SDS011;52661;51.364;6.054;2024-02-21T13:49:25;2.28;;;0.45;;
65879;SDS011;52661;51.364;6.054;2024-02-21T13:51:50;1.52;;;1.30;;
65879;SDS011;52661;51.364;6.054;2024-02-21T13:54:16;3.35;;;1.83;;
65879;SDS011;52661;51.364;6.054;2024-02-21T13:59:09;1.92;;;0.75;;
65879;SDS011;52661;51.364;6.054;2024-02-21T14:01:35;3.30;;;1.38;;
65879;SDS011;52661;51.364;6.054;2024-02-21T14:04:00;1.98;;;0.60;;
65879;SDS011;52661;51.364;6.054;2024-02-21T14:06:26;1.35;;;1.05;;
65879;SDS011;52661;51.364;6.054;2024-02-21T14:08:52;1.38;;;0.63;;
65879;SDS011;52661;51.364;6.054;2024-02-21T14:11:17;2.30;;;0.30;;
65879;SDS011;52661;51.364;6.054;2024-02-21T14:13:42;3.75;;;1.15;;
65879;SDS011;52661;51.364;6.054;2024-02-21T14:16:11;2.47;;;0.87;;
65879;SDS011;52661;51.364;6.054;2024-02-21T14:18:39;2.08;;;0.63;;
65879;SDS011;52661;51.364;6.054;2024-02-21T14:21:08;2.67;;;0.88;;
65879;SDS011;52661;51.364;6.054;2024-02-21T14:23:37;2.25;;;0.73;;
65879;SDS011;52661;51.364;6.054;2024-02-21T14:26:03;4.97;;;1.10;;
65879;SDS011;52661;51.364;6.054;2024-02-21T14:28:29;1.67;;;0.50;;
65879;SDS011;52661;51.364;6.054;2024-02-21T14:30:55;1.70;;;0.80;;
65879;SDS011;52661;51.364;6.054;2024-02-21T14:33:22;0.85;;;0.65;;
65879;SDS011;52661;51.364;6.054;2024-02-21T14:35:49;3.80;;;0.57;;
65879;SDS011;52661;51.364;6.054;2024-02-21T14:38:14;2.03;;;0.60;;
65879;SDS011;52661;51.364;6.054;2024-02-21T14:40:39;4.27;;;0.67;;
65879;SDS011;52661;51.364;6.054;2024-02-21T14:43:05;2.40;;;0.43;;
65879;SDS011;52661;51.364;6.054;2024-02-21T14:45:30;4.80;;;0.93;;
65879;SDS011;52661;51.364;6.054;2024-02-21T14:47:56;1.85;;;0.43;;
65879;SDS011;52661;51.364;6.054;2024-02-21T14:50:21;2.97;;;1.38;;
65879;SDS011;52661;51.364;6.054;2024-02-21T14:52:48;0.85;;;0.35;;
65879;SDS011;52661;51.364;6.054;2024-02-21T14:55:13;2.72;;;0.38;;